createdAt,value
2018-05-17T00:04:38.901Z,2.88
2018-05-17T00:10:33.933Z,2.98
2018-05-17T00:16:28.878Z,3.05
2018-05-17T00:22:23.917Z,3.6
2018-05-17T00:28:18.879Z,3.6
2018-05-17T00:34:13.888Z,2.77
2018-05-17T00:40:08.936Z,2.07
2018-05-17T00:46:03.986Z,2.74
2018-05-17T00:51:58.944Z,2.7
2018-05-17T00:57:53.949Z,2.01
2018-05-17T01:03:48.907Z,2.53
2018-05-17T01:09:43.932Z,2.37
2018-05-17T01:15:38.928Z,2.37
2018-05-17T01:21:33.921Z,2.2
2018-05-17T01:27:28.946Z,2.36
2018-05-17T01:33:23.951Z,2.17
2018-05-17T01:39:18.927Z,2.14
2018-05-17T01:45:13.948Z,2.62
2018-05-17T01:51:08.941Z,2.48
2018-05-17T01:57:03.920Z,2.61
2018-05-17T02:02:58.907Z,2.43
2018-05-17T02:08:53.914Z,2.45
2018-05-17T02:14:48.930Z,2.61
2018-05-17T02:20:43.915Z,2.54
2018-05-17T02:26:38.972Z,2.33
2018-05-17T02:32:33.974Z,2.34
2018-05-17T02:38:28.953Z,2.28
2018-05-17T02:44:23.915Z,2.25
2018-05-17T02:50:18.965Z,2.32
2018-05-17T02:56:13.955Z,2.1
2018-05-17T03:02:08.938Z,2.27
2018-05-17T03:08:03.932Z,2.35
2018-05-17T03:13:58.956Z,2.12
2018-05-17T03:19:53.987Z,2.42
2018-05-17T03:25:48.929Z,2.03
2018-05-17T03:31:43.949Z,2.63
2018-05-17T03:37:38.927Z,2.27
2018-05-17T03:43:33.997Z,2.33
2018-05-17T03:49:28.965Z,2.64
2018-05-17T03:55:24.027Z,2.68
2018-05-17T04:01:18.997Z,2
2018-05-17T04:07:13.944Z,2.23
2018-05-17T04:13:08.931Z,2.36
2018-05-17T04:19:04.013Z,2.52
2018-05-17T04:24:58.997Z,2.34
2018-05-17T04:30:53.969Z,5.2
2018-05-17T04:36:48.949Z,3.54
2018-05-17T04:42:43.974Z,2.96
2018-05-17T04:48:38.958Z,2.66
2018-05-17T04:54:33.969Z,3.22
2018-05-17T05:00:28.950Z,2.97
2018-05-17T05:06:23.990Z,3.24
2018-05-17T05:12:19.005Z,2.9
2018-05-17T05:18:13.979Z,2.77
2018-05-17T05:24:08.968Z,2.89
2018-05-17T05:30:04.171Z,4.7
2018-05-17T05:35:59.002Z,3.73
2018-05-17T05:41:53.980Z,3.74
2018-05-17T05:47:48.986Z,4.67
2018-05-17T05:53:44.005Z,3.9
2018-05-17T05:59:38.988Z,4.26
2018-05-17T06:05:33.984Z,3.04
2018-05-17T06:11:28.977Z,3.72
2018-05-17T06:17:24.031Z,3.8
2018-05-17T06:23:18.983Z,3.75
2018-05-17T06:29:13.957Z,4.29
2018-05-17T06:35:08.998Z,3.88
2018-05-17T06:41:04.003Z,3.88
2018-05-17T06:46:58.982Z,4.15
2018-05-17T06:52:54.017Z,4.18
2018-05-17T06:58:49.002Z,3.51
2018-05-17T07:04:44.007Z,4.29
2018-05-17T07:10:38.991Z,4.44
2018-05-17T07:16:34.018Z,11.32
2018-05-17T07:22:29.013Z,12.98
2018-05-17T07:28:24.001Z,12.69
2018-05-17T07:34:18.977Z,9.9
2018-05-17T07:40:14.030Z,8.4
2018-05-17T07:46:09.017Z,7.16
2018-05-17T07:52:04.018Z,7.28
2018-05-17T07:57:59.020Z,6.3
2018-05-17T08:03:54.028Z,5.48
2018-05-17T08:09:49.099Z,5.11
2018-05-17T08:15:44.015Z,5.33
2018-05-17T08:21:39.073Z,4.97
2018-05-17T08:27:34.094Z,5.87
2018-05-17T08:33:29.024Z,5.41
2018-05-17T08:39:24.130Z,6.09
2018-05-17T08:45:19.055Z,5.11
2018-05-17T08:51:14.028Z,5.12
2018-05-17T08:57:09.060Z,5.35
2018-05-17T09:03:04.012Z,4.05
2018-05-17T09:08:59.129Z,5.73
2018-05-17T09:14:54.128Z,5.86
2018-05-17T09:20:49.009Z,4.69
2018-05-17T09:26:44.085Z,5.46
2018-05-17T09:32:39.025Z,7.38
2018-05-17T09:38:34.093Z,5.19
2018-05-17T09:44:29.078Z,8.56
2018-05-17T09:50:24.095Z,7.76
2018-05-17T09:56:19.034Z,7.04
2018-05-17T10:02:14.045Z,5.51
2018-05-17T10:08:09.080Z,5.68
2018-05-17T10:14:04.041Z,4.76
2018-05-17T10:19:59.086Z,4.7
2018-05-17T10:25:54.062Z,3.64
2018-05-17T10:31:49.043Z,3.62
2018-05-17T10:37:44.104Z,7.26
2018-05-17T10:43:39.038Z,8.33
2018-05-17T10:49:34.083Z,10.47
2018-05-17T10:55:29.071Z,10.35
2018-05-17T11:01:24.057Z,7.65
2018-05-17T11:07:19.137Z,5.62
2018-05-17T11:13:14.061Z,8.72
2018-05-17T11:19:09.098Z,6.93
2018-05-17T11:25:04.149Z,5.22
2018-05-17T11:30:59.147Z,4.86
2018-05-17T11:36:54.156Z,4.64
2018-05-17T11:42:49.157Z,5.13
2018-05-17T11:48:44.097Z,4.33
2018-05-17T11:54:39.107Z,4.95
2018-05-17T12:00:34.069Z,4.13
2018-05-17T12:12:24.105Z,4.58
2018-05-17T12:12:24.173Z,4.13
2018-05-17T12:18:19.109Z,4.3
2018-05-17T12:24:14.142Z,4.24
2018-05-17T12:30:09.137Z,4.65
2018-05-17T12:36:04.127Z,4.93
2018-05-17T12:41:59.112Z,4.02
2018-05-17T12:47:54.318Z,4.85
2018-05-17T12:53:49.124Z,4.34
2018-05-17T12:59:44.136Z,4.7
2018-05-17T13:05:39.135Z,6.8
2018-05-17T13:11:34.127Z,5.52
2018-05-17T13:17:29.125Z,4.97
2018-05-17T13:23:24.132Z,5.89
2018-05-17T13:29:19.162Z,8.56
2018-05-17T13:35:14.159Z,8.16
2018-05-17T13:41:09.169Z,16.1
2018-05-17T13:47:04.166Z,13.6
2018-05-17T13:52:59.125Z,13.79
2018-05-17T13:58:54.143Z,11.39
2018-05-17T14:04:49.168Z,9.42
2018-05-17T14:10:44.162Z,8.83
2018-05-17T14:16:39.185Z,7.12
2018-05-17T14:22:34.468Z,13.32
2018-05-17T14:28:29.166Z,14.95
2018-05-17T14:34:24.232Z,18.31
2018-05-17T14:40:19.159Z,16.33
2018-05-17T14:46:14.206Z,11.9
2018-05-17T14:52:09.207Z,9.71
2018-05-17T14:58:04.157Z,7.16
2018-05-17T15:03:59.178Z,6.07
2018-05-17T15:09:54.159Z,5.13
2018-05-17T15:15:49.172Z,4.86
2018-05-17T15:21:44.185Z,4.58
2018-05-17T15:27:39.314Z,5.42
2018-05-17T15:33:34.173Z,9.79
2018-05-17T15:39:29.199Z,7.86
2018-05-17T15:45:24.252Z,7.98
2018-05-17T15:51:19.188Z,11.26
2018-05-17T15:57:14.189Z,10.91
2018-05-17T16:03:09.196Z,11.02
2018-05-17T16:09:04.174Z,8.64
2018-05-17T16:14:59.259Z,6.75
2018-05-17T16:20:54.192Z,5.07
2018-05-17T16:26:49.206Z,6.06
2018-05-17T16:32:44.234Z,2.9
2018-05-17T16:38:39.223Z,2.43
2018-05-17T16:44:34.192Z,3.34
2018-05-17T16:50:29.224Z,3.42
2018-05-17T16:56:24.185Z,3.6
2018-05-17T17:02:19.197Z,4.37
2018-05-17T17:08:14.193Z,4.52
2018-05-17T17:14:09.263Z,3.51
2018-05-17T17:20:04.219Z,3.6
2018-05-17T17:25:59.203Z,4.08
2018-05-17T17:31:54.229Z,4.43
2018-05-17T17:37:49.210Z,4.11
2018-05-17T17:43:44.214Z,4.33
2018-05-17T17:49:39.267Z,3.93
2018-05-17T17:55:34.262Z,3.66
2018-05-17T18:01:29.208Z,3.34
2018-05-17T18:07:24.232Z,3.58
2018-05-17T18:13:19.231Z,3.38
2018-05-17T18:19:14.236Z,3.19
2018-05-17T18:25:09.228Z,3.35
2018-05-17T18:31:04.248Z,3.01
2018-05-17T18:36:59.262Z,3.3
2018-05-17T18:42:54.242Z,3.58
2018-05-17T18:48:49.301Z,3.12
2018-05-17T18:54:44.287Z,3.13
2018-05-17T19:00:39.232Z,3.25
2018-05-17T19:06:34.234Z,3.26
2018-05-17T19:12:29.279Z,3.31
2018-05-17T19:18:24.229Z,3.85
2018-05-17T19:24:19.256Z,3.39
2018-05-17T19:30:14.287Z,2.94
2018-05-17T19:36:09.243Z,6.19
2018-05-17T19:42:04.292Z,7.82
2018-05-17T19:47:59.272Z,7.33
2018-05-17T19:53:54.250Z,6.91
2018-05-17T19:59:49.250Z,6.17
2018-05-17T20:05:44.248Z,5.33
2018-05-17T20:11:39.244Z,4.64
2018-05-17T20:23:29.298Z,4.23
2018-05-17T20:23:29.311Z,4.43
2018-05-17T20:29:24.312Z,4.43
2018-05-17T20:35:19.270Z,5.03
2018-05-17T20:41:14.267Z,3.9
2018-05-17T20:47:09.303Z,4.56
2018-05-17T20:53:04.335Z,3.61
2018-05-17T20:58:59.307Z,3.65
2018-05-17T21:04:54.302Z,3.51
2018-05-17T21:10:49.277Z,3.59
2018-05-17T21:16:44.297Z,3.74
2018-05-17T21:22:39.289Z,4.19
2018-05-17T21:28:34.271Z,4.45
2018-05-17T21:34:29.288Z,4.37
2018-05-17T21:40:24.292Z,5.21
2018-05-17T21:46:19.304Z,4.44
2018-05-17T21:52:14.328Z,4.52
2018-05-17T21:58:09.314Z,4.79
2018-05-17T22:04:04.263Z,3.45
2018-05-17T22:09:59.296Z,3.42
2018-05-17T22:15:54.313Z,3.65
2018-05-17T22:21:49.289Z,3.98
2018-05-17T22:27:44.299Z,3.12
2018-05-17T22:33:39.288Z,4.24
2018-05-17T22:39:34.285Z,4.21
2018-05-17T22:45:29.315Z,4.21
2018-05-17T22:51:24.332Z,4.4
2018-05-17T22:57:19.339Z,6.53
2018-05-17T23:03:14.313Z,5.89
2018-05-17T23:09:09.300Z,5.63
2018-05-17T23:15:04.312Z,5.29
2018-05-17T23:20:59.930Z,5.79
2018-05-17T23:26:54.339Z,6.02
2018-05-17T23:32:49.314Z,5.48
2018-05-17T23:38:44.291Z,5.25
2018-05-17T23:44:39.309Z,5.25
2018-05-17T23:50:38.002Z,5.52
2018-05-17T23:56:29.319Z,5.55
